الصفحة الرئيسية
METAR-TAF:

METAR-TAF

مطار :

Katherine, أستراليا

دائرة عرض: 14-26S, خط طول: 132-16E, ارتفاع: 108 متر

مراقبة الطقس الحالي

تاريخ ووقت الإصدار 30 دقيقة قبل الساعة 21:00UTC
ريح 7 عقدة من الجنوب الشرقي
درجة الحرارة 18°درجة مئوية
الرطوبة 56%
ضغط 1013 hPa
الرؤية 10 كم أو أكثر

METAR: YPTN 172100Z AUTO 14007KT 9999 // NCD 18/09 Q1013

زمن: 07:00 (21:30 UTC)

توقعات

تاريخ ووقت الإصدار 4ساعات و 23 دقيقة قبل الساعة 17:07UTC
التوقعات صالحة من17 الساعة 18 UTC إلى 18 الساعة 18 UTC
ريح 6 عقدة من الجنوب الشرقي
الرؤية 10 كم أو أكثر
الغيوم لا تقل 1500 م ولا وجود لمزنة ركامية السحاب الأسود
من 17 الساعة 2300 UTC
ريح 14 عقدة من الجنوب الشرقي
الرؤية 10 كم أو أكثر
الغيوم لا تقل 1500 م ولا وجود لمزنة ركامية السحاب الأسود
من 18 الساعة 1000 UTC
ريح 5 عقدة من الجنوب الشرقي
الرؤية 10 كم أو أكثر
الغيوم لا تقل 1500 م ولا وجود لمزنة ركامية السحاب الأسود

TAF: YPTN 171707Z 1718/1818 14006KT CAVOK FM172300 13014KT CAVOK FM181000 13005KT CAVOK

أرصاد الطقس والتوقعات من أكثر من 4000 مطار (تقارير الطقس للمطار METAR والتنبؤ بالطقس بالمطارTAF).

المحطات المتاحة هي النقط الصفراء والحمراء على الخريطة.

حرك المؤشر فوق النقطة لمعرفة اسم المحطة.

ثم انقر لمعرفة أرصاد وتوقعات الطقس.

لتغيير الخارطة: اضغط على الأزرار الخضراء مع رمز الصليب الأسود للتكبير. على الزر الأخضر مع شرطة للتصغير، أو على الأسهم الخضراء للخرائط المجاورة.


METAR-TAF: